Time;durP1;ratioP1;P1;durP2;ratioP2;P2;SDS_P1;SDS_P2;PMS_P1;PMS_P2;Temp;Humidity;BMP_temperature;BMP_pressure;BME280_temperature;BME280_humidity;BME280_pressure;Samples;Min_cycle;Max_cycle;Signal;HPM_P1;HPM_P2
2023/06/15 00:00:50;;;;;;;12.55;7.05;;;;;;;;;;4955385;29;20401;-84
2023/06/15 00:03:36;;;;;;;12.68;7.18;;;;;;;;;;4947310;29;20047;-85
2023/06/15 00:06:22;;;;;;;9.63;6.03;;;;;;;;;;4955230;29;20047;-84
2023/06/15 00:09:07;;;;;;;10.27;5.97;;;;;;;;;;4947397;29;20570;-82
2023/06/15 00:11:52;;;;;;;11.32;5.80;;;;;;;;;;4955434;29;20043;-83
2023/06/15 00:14:37;;;;;;;10.02;5.53;;;;;;;;;;4941301;29;20051;-83
2023/06/15 00:17:23;;;;;;;8.68;5.22;;;;;;;;;;4955290;29;20051;-83
2023/06/15 00:20:21;;;;;;;7.80;5.78;;;;;;;;;;4955566;29;20051;-83
2023/06/15 00:23:08;;;;;;;7.13;5.10;;;;;;;;;;4955455;29;20477;-83
2023/06/15 00:25:58;;;;;;;10.05;5.90;;;;;;;;;;4955503;29;20047;-83
2023/06/15 00:28:48;;;;;;;8.05;5.88;;;;;;;;;;4934601;29;20401;-83
2023/06/15 00:31:36;;;;;;;13.18;5.75;;;;;;;;;;4947595;29;20513;-82
2023/06/15 00:34:21;;;;;;;14.90;5.55;;;;;;;;;;4947219;29;20047;-83
2023/06/15 00:37:10;;;;;;;10.68;5.82;;;;;;;;;;4947329;29;20048;-83
2023/06/15 00:39:58;;;;;;;7.78;5.65;;;;;;;;;;4933942;29;20043;-84
2023/06/15 00:42:55;;;;;;;8.50;5.38;;;;;;;;;;4934170;29;20044;-84
2023/06/15 00:45:59;;;;;;;8.25;5.90;;;;;;;;;;4947647;29;20039;-83
2023/06/15 00:48:46;;;;;;;10.75;5.80;;;;;;;;;;4955129;29;20386;-83
2023/06/15 00:51:33;;;;;;;7.15;5.25;;;;;;;;;;4945955;29;20039;-83
2023/06/15 00:54:26;;;;;;;9.38;5.53;;;;;;;;;;4955560;29;20040;-83
2023/06/15 00:57:17;;;;;;;10.15;5.85;;;;;;;;;;4934162;29;20061;-83
2023/06/15 01:00:05;;;;;;;9.60;5.93;;;;;;;;;;4947189;28;20051;-83
2023/06/15 01:03:02;;;;;;;10.25;6.32;;;;;;;;;;4934569;29;20051;-83
2023/06/15 01:05:52;;;;;;;8.40;5.93;;;;;;;;;;4935278;28;20047;-83
2023/06/15 01:08:40;;;;;;;11.13;5.80;;;;;;;;;;4957325;29;20043;-82
2023/06/15 01:11:25;;;;;;;14.80;5.60;;;;;;;;;;4958002;29;20035;-82
2023/06/15 01:14:11;;;;;;;8.57;5.53;;;;;;;;;;4958142;29;20047;-81
2023/06/15 01:17:05;;;;;;;8.10;5.70;;;;;;;;;;4958066;29;20042;-82
2023/06/15 01:19:57;;;;;;;8.38;5.80;;;;;;;;;;4943933;29;20047;-82
2023/06/15 01:22:55;;;;;;;12.15;5.80;;;;;;;;;;4950295;28;20043;-82
2023/06/15 01:25:53;;;;;;;10.15;6.40;;;;;;;;;;4950062;28;20047;-83
2023/06/15 01:28:46;;;;;;;11.75;6.18;;;;;;;;;;4945363;29;20043;-83
2023/06/15 01:31:32;;;;;;;10.10;5.90;;;;;;;;;;4943419;29;20043;-83
2023/06/15 01:34:17;;;;;;;8.80;5.70;;;;;;;;;;4943262;29;20055;-83
2023/06/15 01:37:03;;;;;;;8.18;5.93;;;;;;;;;;4930362;29;20051;-83
2023/06/15 01:39:49;;;;;;;11.05;6.25;;;;;;;;;;4950018;28;20047;-83
2023/06/15 01:42:35;;;;;;;7.32;6.15;;;;;;;;;;4950087;28;20051;-83
2023/06/15 01:45:21;;;;;;;9.50;6.05;;;;;;;;;;4957512;29;20051;-83
2023/06/15 01:48:07;;;;;;;15.80;6.38;;;;;;;;;;4957679;29;20039;-83
2023/06/15 01:50:54;;;;;;;13.18;7.70;;;;;;;;;;4949394;28;20039;-83
2023/06/15 01:53:40;;;;;;;14.45;7.93;;;;;;;;;;4956693;29;20047;-83
2023/06/15 01:56:26;;;;;;;15.35;8.65;;;;;;;;;;4943056;29;20055;-83
2023/06/15 01:59:12;;;;;;;16.05;8.65;;;;;;;;;;4949336;28;20043;-83
2023/06/15 02:01:57;;;;;;;18.00;9.20;;;;;;;;;;4949628;28;20055;-83
2023/06/15 02:04:42;;;;;;;15.27;9.95;;;;;;;;;;4949344;28;20047;-83
2023/06/15 02:07:28;;;;;;;24.58;11.65;;;;;;;;;;4949190;28;20051;-83
2023/06/15 02:10:13;;;;;;;22.85;12.15;;;;;;;;;;4948135;28;20047;-83
2023/06/15 02:12:59;;;;;;;22.17;12.68;;;;;;;;;;4935970;28;20039;-83
2023/06/15 02:15:44;;;;;;;25.63;13.70;;;;;;;;;;4949428;28;20047;-83
2023/06/15 02:18:30;;;;;;;23.30;13.00;;;;;;;;;;4948781;28;20043;-83
2023/06/15 02:21:15;;;;;;;25.88;12.70;;;;;;;;;;4949320;28;20051;-83
2023/06/15 02:24:02;;;;;;;24.60;13.65;;;;;;;;;;4949252;28;20055;-83
2023/06/15 02:26:49;;;;;;;27.23;14.52;;;;;;;;;;4948906;28;20047;-83
2023/06/15 02:29:34;;;;;;;30.75;15.13;;;;;;;;;;4948824;28;20047;-83
2023/06/15 02:32:34;;;;;;;25.50;14.18;;;;;;;;;;4948382;28;20497;-83
2023/06/15 02:35:22;;;;;;;25.13;13.25;;;;;;;;;;4946102;28;20494;-83
2023/06/15 02:38:08;;;;;;;27.83;13.93;;;;;;;;;;4948940;28;20047;-83
2023/06/15 02:40:53;;;;;;;23.02;12.93;;;;;;;;;;4948503;28;20490;-83
2023/06/15 02:43:41;;;;;;;26.13;13.57;;;;;;;;;;4948605;28;20039;-83
2023/06/15 02:46:27;;;;;;;31.20;13.30;;;;;;;;;;4942021;29;20039;-83
2023/06/15 02:49:12;;;;;;;30.23;11.82;;;;;;;;;;4947817;28;20421;-83
2023/06/15 02:51:58;;;;;;;26.00;13.00;;;;;;;;;;4948176;28;20051;-83
2023/06/15 02:54:45;;;;;;;20.58;11.65;;;;;;;;;;4948309;28;20055;-83
2023/06/15 02:57:34;;;;;;;20.23;11.15;;;;;;;;;;4948809;28;20477;-83
2023/06/15 03:00:32;;;;;;;20.42;11.07;;;;;;;;;;4948106;28;20055;-83
2023/06/15 03:03:33;;;;;;;23.85;12.35;;;;;;;;;;4948346;28;20482;-83
2023/06/15 03:06:21;;;;;;;27.77;12.82;;;;;;;;;;4948020;28;20051;-83
2023/06/15 03:09:07;;;;;;;30.05;15.50;;;;;;;;;;4948170;28;20402;-83
2023/06/15 03:11:55;;;;;;;29.45;15.60;;;;;;;;;;4948183;28;20402;-84
2023/06/15 03:14:50;;;;;;;36.47;16.70;;;;;;;;;;4948078;28;20051;-83
2023/06/15 03:17:36;;;;;;;42.03;17.50;;;;;;;;;;4948261;28;20047;-83
2023/06/15 03:20:23;;;;;;;39.25;18.73;;;;;;;;;;4934905;28;20047;-82
2023/06/15 03:23:11;;;;;;;42.38;18.42;;;;;;;;;;4947668;28;20051;-83
2023/06/15 03:25:55;;;;;;;37.00;17.08;;;;;;;;;;4947767;28;20043;-83
2023/06/15 03:28:44;;;;;;;37.72;17.10;;;;;;;;;;4947450;28;20055;-83
2023/06/15 03:31:40;;;;;;;32.75;16.08;;;;;;;;;;4935082;28;20039;-82
2023/06/15 03:34:25;;;;;;;35.28;16.13;;;;;;;;;;4933979;28;20051;-82
2023/06/15 03:37:11;;;;;;;30.17;14.55;;;;;;;;;;4941697;29;20413;-83
2023/06/15 03:40:00;;;;;;;26.50;14.52;;;;;;;;;;4941232;29;20402;-82
2023/06/15 03:42:45;;;;;;;27.13;14.73;;;;;;;;;;4936935;29;20051;-82
2023/06/15 03:45:31;;;;;;;32.17;15.18;;;;;;;;;;4928574;29;20043;-82
2023/06/15 03:48:18;;;;;;;24.58;13.88;;;;;;;;;;4941789;29;20047;-82
2023/06/15 03:51:03;;;;;;;33.08;13.65;;;;;;;;;;4940925;29;20047;-83
2023/06/15 03:53:48;;;;;;;23.50;13.02;;;;;;;;;;4936637;29;20044;-82
2023/06/15 03:56:34;;;;;;;21.83;12.13;;;;;;;;;;4941842;29;20039;-83
2023/06/15 03:59:20;;;;;;;30.20;11.60;;;;;;;;;;4935359;29;20052;-82
2023/06/15 04:02:06;;;;;;;19.42;11.10;;;;;;;;;;4928408;29;20040;-82
2023/06/15 04:04:56;;;;;;;24.17;10.18;;;;;;;;;;4941393;29;20482;-82
2023/06/15 04:07:43;;;;;;;16.60;9.38;;;;;;;;;;4941611;29;20077;-82
2023/06/15 04:10:30;;;;;;;11.88;8.32;;;;;;;;;;4941861;29;20056;-82
2023/06/15 04:13:16;;;;;;;12.65;7.75;;;;;;;;;;4928259;29;20048;-82
2023/06/15 04:16:01;;;;;;;10.73;7.60;;;;;;;;;;4941645;29;20055;-82
2023/06/15 04:18:47;;;;;;;16.35;6.97;;;;;;;;;;4927839;29;20048;-83
2023/06/15 04:21:32;;;;;;;9.43;7.05;;;;;;;;;;4928218;29;20051;-83
2023/06/15 04:24:21;;;;;;;14.18;7.35;;;;;;;;;;4940926;29;20040;-83
2023/06/15 04:27:12;;;;;;;12.63;7.03;;;;;;;;;;4941758;29;20390;-83
2023/06/15 04:30:03;;;;;;;8.75;6.05;;;;;;;;;;4941085;29;20040;-83
2023/06/15 04:32:57;;;;;;;10.43;6.20;;;;;;;;;;4926967;29;20051;-82
2023/06/15 04:35:46;;;;;;;9.20;6.32;;;;;;;;;;4933280;29;20409;-82
2023/06/15 04:38:33;;;;;;;10.00;6.18;;;;;;;;;;4946756;28;20039;-82
2023/06/15 04:41:22;;;;;;;14.15;6.63;;;;;;;;;;4949063;28;20043;-82
2023/06/15 04:44:09;;;;;;;11.43;6.80;;;;;;;;;;4951553;28;20043;-82
2023/06/15 04:46:55;;;;;;;9.13;5.85;;;;;;;;;;4958285;29;20047;-82
2023/06/15 04:49:41;;;;;;;14.90;7.50;;;;;;;;;;4937821;28;20055;-82
2023/06/15 04:52:28;;;;;;;11.77;7.28;;;;;;;;;;4937144;28;20047;-82
2023/06/15 04:55:13;;;;;;;13.48;6.38;;;;;;;;;;4950356;28;20047;-82
2023/06/15 04:58:02;;;;;;;11.90;6.50;;;;;;;;;;4950650;28;20064;-82
2023/06/15 05:00:47;;;;;;;12.30;6.88;;;;;;;;;;4950305;28;20458;-83
2023/06/15 05:03:34;;;;;;;13.90;6.53;;;;;;;;;;4950393;28;20047;-82
2023/06/15 05:06:20;;;;;;;12.80;6.95;;;;;;;;;;4950256;28;20059;-82
2023/06/15 05:09:07;;;;;;;15.93;6.72;;;;;;;;;;4936776;28;20047;-83
2023/06/15 05:11:53;;;;;;;12.70;6.72;;;;;;;;;;4935981;28;20047;-83
2023/06/15 05:14:39;;;;;;;11.65;6.95;;;;;;;;;;4950070;28;20043;-83
2023/06/15 05:17:26;;;;;;;9.30;6.45;;;;;;;;;;4936772;28;20043;-82
2023/06/15 05:20:14;;;;;;;14.43;7.90;;;;;;;;;;4936507;28;20047;-83
2023/06/15 05:23:08;;;;;;;12.60;7.07;;;;;;;;;;4949908;28;20405;-83
2023/06/15 05:26:01;;;;;;;14.38;6.85;;;;;;;;;;4936727;28;20047;-83
2023/06/15 05:28:50;;;;;;;16.90;7.35;;;;;;;;;;4949648;28;20043;-84
2023/06/15 05:31:36;;;;;;;11.52;7.30;;;;;;;;;;4936256;28;20043;-83
2023/06/15 05:34:22;;;;;;;13.32;6.72;;;;;;;;;;4949318;28;20051;-83
2023/06/15 05:37:11;;;;;;;12.90;6.55;;;;;;;;;;4957681;29;20058;-84
2023/06/15 05:39:58;;;;;;;12.73;7.53;;;;;;;;;;4948275;28;20460;-84
2023/06/15 05:42:44;;;;;;;13.70;7.00;;;;;;;;;;4947905;28;20047;-84
2023/06/15 05:45:32;;;;;;;24.70;7.60;;;;;;;;;;4948162;28;20047;-83
2023/06/15 05:48:22;;;;;;;12.25;7.13;;;;;;;;;;4935372;28;20047;-83
2023/06/15 05:51:08;;;;;;;12.18;7.25;;;;;;;;;;4936572;28;20047;-83
2023/06/15 05:53:53;;;;;;;8.65;6.63;;;;;;;;;;4949157;28;20051;-83
2023/06/15 05:56:39;;;;;;;16.25;6.72;;;;;;;;;;4943215;29;20047;-83
2023/06/15 05:59:25;;;;;;;9.40;6.63;;;;;;;;;;4957410;29;20493;-83
2023/06/15 06:02:10;;;;;;;11.10;6.28;;;;;;;;;;4949572;28;20051;-83
2023/06/15 06:04:57;;;;;;;10.57;6.30;;;;;;;;;;4948325;28;20043;-83
2023/06/15 06:07:45;;;;;;;14.63;6.90;;;;;;;;;;4949377;28;20043;-83
2023/06/15 06:10:31;;;;;;;11.13;6.93;;;;;;;;;;4949604;28;20039;-83
2023/06/15 06:13:34;;;;;;;10.23;5.75;;;;;;;;;;4949385;28;20489;-83
2023/06/15 06:16:21;;;;;;;8.10;6.10;;;;;;;;;;4949289;28;20225;-83
2023/06/15 06:19:06;;;;;;;11.98;6.45;;;;;;;;;;4936274;28;20047;-83
2023/06/15 06:21:52;;;;;;;9.70;6.57;;;;;;;;;;4949044;28;20051;-82
2023/06/15 06:24:37;;;;;;;9.52;6.32;;;;;;;;;;4935478;28;20051;-82
2023/06/15 06:27:23;;;;;;;11.60;7.60;;;;;;;;;;4949320;28;20051;-83
2023/06/15 06:30:10;;;;;;;10.30;6.78;;;;;;;;;;4942417;29;20398;-82
2023/06/15 06:32:55;;;;;;;8.50;6.40;;;;;;;;;;4948647;28;20031;-82
2023/06/15 06:35:41;;;;;;;14.93;6.68;;;;;;;;;;4942351;29;20047;-82
2023/06/15 06:38:37;;;;;;;9.05;6.32;;;;;;;;;;4956673;29;20047;-83
2023/06/15 06:41:29;;;;;;;13.15;6.80;;;;;;;;;;4942318;29;20043;-83
2023/06/15 06:44:18;;;;;;;9.98;6.10;;;;;;;;;;4935474;28;20055;-83
2023/06/15 06:47:06;;;;;;;11.27;6.55;;;;;;;;;;4942446;29;20478;-82
2023/06/15 06:50:03;;;;;;;13.18;6.90;;;;;;;;;;4948612;28;20489;-83
2023/06/15 06:52:49;;;;;;;8.65;6.97;;;;;;;;;;4932650;28;20055;-83
2023/06/15 06:55:34;;;;;;;13.45;7.25;;;;;;;;;;4935170;28;20043;-83
2023/06/15 06:58:20;;;;;;;9.80;7.00;;;;;;;;;;4948727;28;20055;-83
2023/06/15 07:01:06;;;;;;;9.50;6.93;;;;;;;;;;4935466;28;20051;-83
2023/06/15 07:03:56;;;;;;;11.18;6.70;;;;;;;;;;4948144;28;20166;-83
2023/06/15 07:22:25;;;;;;;10.27;7.03;;;;;;;;;;4948105;28;20043;-83
2023/06/15 07:25:25;;;;;;;10.00;7.30;;;;;;;;;;4941568;29;20051;-83
2023/06/15 07:29:07;;;;;;;10.30;7.32;;;;;;;;;;4947497;28;20051;-83
2023/06/15 07:45:16;;;;;;;12.13;7.05;;;;;;;;;;4893298;29;20053;-83
2023/06/15 07:54:02;;;;;;;8.18;6.00;;;;;;;;;;4960474;28;20080;-83
2023/06/15 07:57:26;;;;;;;8.48;6.40;;;;;;;;;;4953990;29;20493;-83
2023/06/15 08:01:13;;;;;;;11.10;6.70;;;;;;;;;;4944817;29;20405;-82
2023/06/15 08:04:14;;;;;;;11.13;7.13;;;;;;;;;;4903794;29;20493;-83
2023/06/15 08:07:12;;;;;;;9.30;6.85;;;;;;;;;;4934677;29;20055;-83
2023/06/15 08:10:07;;;;;;;13.45;8.30;;;;;;;;;;4941624;29;20051;-83
2023/06/15 08:12:59;;;;;;;8.23;5.80;;;;;;;;;;4940704;29;20051;-81
2023/06/15 08:15:52;;;;;;;10.97;7.40;;;;;;;;;;4955601;28;20059;-84
2023/06/15 08:18:54;;;;;;;10.93;6.03;;;;;;;;;;4950582;28;20047;-79
2023/06/15 08:21:43;;;;;;;9.30;5.80;;;;;;;;;;4950772;28;20051;-77
2023/06/15 08:24:34;;;;;;;7.68;5.75;;;;;;;;;;4950551;28;20405;-78
2023/06/15 08:27:24;;;;;;;7.38;5.70;;;;;;;;;;4958735;29;20051;-78
2023/06/15 08:30:18;;;;;;;7.65;5.70;;;;;;;;;;4958365;29;20047;-78
2023/06/15 08:33:20;;;;;;;9.95;5.38;;;;;;;;;;4957903;29;20496;-80
2023/06/15 08:36:18;;;;;;;8.02;5.47;;;;;;;;;;4957345;29;20051;-81
2023/06/15 08:39:10;;;;;;;8.18;5.88;;;;;;;;;;4957206;29;20058;-78
2023/06/15 08:41:55;;;;;;;16.52;9.98;;;;;;;;;;4958287;29;20047;-80
2023/06/15 08:44:42;;;;;;;9.27;5.82;;;;;;;;;;4956203;29;20051;-79
2023/06/15 08:47:36;;;;;;;6.82;5.22;;;;;;;;;;4949070;28;20050;-80
2023/06/15 08:50:30;;;;;;;7.28;5.50;;;;;;;;;;4956231;29;20047;-80
2023/06/15 08:53:26;;;;;;;9.63;6.18;;;;;;;;;;4958007;29;20047;-80
2023/06/15 08:56:23;;;;;;;9.00;5.80;;;;;;;;;;4942983;29;20142;-82
2023/06/15 08:59:21;;;;;;;10.85;7.10;;;;;;;;;;4956732;29;20043;-81
2023/06/15 09:02:25;;;;;;;9.43;5.82;;;;;;;;;;4956271;29;20055;-79
2023/06/15 09:05:20;;;;;;;6.90;5.72;;;;;;;;;;4956350;29;20043;-81
2023/06/15 09:08:17;;;;;;;10.88;6.32;;;;;;;;;;4957112;29;20047;-80
2023/06/15 09:11:09;;;;;;;8.63;5.93;;;;;;;;;;4956889;29;20051;-79
2023/06/15 09:13:55;;;;;;;10.73;5.78;;;;;;;;;;4957970;29;20051;-81
2023/06/15 09:16:41;;;;;;;10.43;6.80;;;;;;;;;;4958222;29;20358;-82
2023/06/15 09:19:35;;;;;;;8.73;6.15;;;;;;;;;;4958103;29;20039;-81
2023/06/15 09:22:22;;;;;;;9.00;5.85;;;;;;;;;;4957898;29;20043;-78
2023/06/15 09:25:16;;;;;;;8.77;5.28;;;;;;;;;;4959571;29;20402;-80
2023/06/15 09:28:06;;;;;;;9.67;5.70;;;;;;;;;;4958098;28;20489;-77
2023/06/15 09:30:59;;;;;;;6.85;5.78;;;;;;;;;;4959515;29;20043;-80
2023/06/15 09:33:44;;;;;;;11.40;6.30;;;;;;;;;;4957207;29;20047;-79
2023/06/15 09:36:40;;;;;;;8.60;5.75;;;;;;;;;;4957523;29;20402;-79
2023/06/15 09:39:27;;;;;;;;;;;;;;;;;;4957181;29;20051;-79
2023/06/15 09:42:13;;;;;;;8.73;5.78;;;;;;;;;;4957271;29;19918;-79
2023/06/15 09:45:00;;;;;;;9.90;5.80;;;;;;;;;;4956862;29;20051;-80
2023/06/15 09:47:54;;;;;;;5.93;4.47;;;;;;;;;;4957441;29;20039;-78
2023/06/15 09:50:40;;;;;;;6.63;4.93;;;;;;;;;;4957695;29;20290;-79
2023/06/15 09:53:28;;;;;;;12.30;8.55;;;;;;;;;;4957144;29;20460;-80
2023/06/15 09:56:13;;;;;;;6.53;4.55;;;;;;;;;;4956975;29;20485;-79
2023/06/15 09:59:02;;;;;;;7.35;4.28;;;;;;;;;;4956356;29;20489;-80
2023/06/15 10:01:50;;;;;;;9.20;4.78;;;;;;;;;;4957005;29;20039;-80
2023/06/15 10:04:40;;;;;;;10.23;5.88;;;;;;;;;;4957221;29;20043;-78
2023/06/15 10:07:27;;;;;;;7.20;5.13;;;;;;;;;;4943516;29;20055;-79
2023/06/15 10:10:14;;;;;;;7.43;5.80;;;;;;;;;;4957160;29;20036;-78
2023/06/15 10:13:02;;;;;;;10.15;6.50;;;;;;;;;;4954544;29;20051;-79
2023/06/15 10:15:52;;;;;;;7.60;5.82;;;;;;;;;;4954480;29;20047;-78
2023/06/15 10:18:39;;;;;;;8.10;6.50;;;;;;;;;;4954589;29;20486;-80
2023/06/15 10:21:28;;;;;;;9.77;5.97;;;;;;;;;;4954342;29;20051;-81
2023/06/15 10:24:25;;;;;;;11.18;6.68;;;;;;;;;;4954548;29;20046;-78
2023/06/15 10:27:16;;;;;;;9.68;6.60;;;;;;;;;;4940603;29;20055;-78
2023/06/15 10:30:32;;;;;;;8.27;5.85;;;;;;;;;;4954380;29;20047;-78
2023/06/15 10:33:32;;;;;;;9.50;6.70;;;;;;;;;;4954887;29;20051;-81
2023/06/15 10:36:29;;;;;;;10.15;7.25;;;;;;;;;;4957596;28;20059;-80
2023/06/15 10:39:21;;;;;;;10.18;6.35;;;;;;;;;;4953751;28;20481;-81
2023/06/15 10:42:13;;;;;;;9.55;6.55;;;;;;;;;;4954457;29;20051;-78
2023/06/15 10:45:31;;;;;;;8.57;6.40;;;;;;;;;;4947810;28;20051;-80
2023/06/15 10:48:26;;;;;;;11.95;7.38;;;;;;;;;;4946121;28;20051;-79
2023/06/15 10:51:15;;;;;;;9.50;7.00;;;;;;;;;;4953898;29;20092;-79
2023/06/15 10:54:06;;;;;;;11.60;7.50;;;;;;;;;;4954619;29;20047;-80
2023/06/15 10:57:00;;;;;;;;;;;;;;;;;;4954138;29;20050;-80
2023/06/15 10:59:54;;;;;;;12.20;7.50;;;;;;;;;;4954131;29;19914;-79
2023/06/15 11:02:47;;;;;;;11.80;7.50;;;;;;;;;;4953450;29;20035;-78
2023/06/15 11:05:43;;;;;;;12.75;8.63;;;;;;;;;;4953492;29;20051;-80
2023/06/15 11:08:40;;;;;;;8.10;6.78;;;;;;;;;;4953571;29;20040;-80
2023/06/15 11:11:36;;;;;;;9.30;6.53;;;;;;;;;;4953996;29;20051;-80
2023/06/15 11:14:22;;;;;;;9.00;6.13;;;;;;;;;;4953085;29;20501;-80
2023/06/15 11:17:09;;;;;;;8.38;6.30;;;;;;;;;;4953451;29;20051;-79
2023/06/15 11:19:57;;;;;;;9.02;6.50;;;;;;;;;;4953374;29;20051;-83
2023/06/15 11:22:48;;;;;;;12.10;6.90;;;;;;;;;;4953662;29;20046;-82
2023/06/15 11:25:42;;;;;;;9.43;6.80;;;;;;;;;;4955015;29;20055;-81
2023/06/15 11:28:33;;;;;;;9.70;5.78;;;;;;;;;;4955444;29;20055;-80
2023/06/15 11:31:20;;;;;;;8.75;6.93;;;;;;;;;;4947252;28;20051;-81
2023/06/15 11:34:09;;;;;;;10.90;6.80;;;;;;;;;;4955531;29;20051;-80
2023/06/15 11:37:00;;;;;;;10.70;6.75;;;;;;;;;;4955602;29;20047;-80
2023/06/15 11:39:46;;;;;;;10.07;6.78;;;;;;;;;;4954909;29;20047;-84
2023/06/15 11:42:32;;;;;;;8.63;6.82;;;;;;;;;;4954141;29;20051;-84
2023/06/15 11:45:21;;;;;;;14.15;7.45;;;;;;;;;;4940153;29;20517;-84
2023/06/15 11:48:13;;;;;;;10.80;7.50;;;;;;;;;;4954548;29;20039;-83
2023/06/15 11:50:59;;;;;;;9.45;6.47;;;;;;;;;;4954435;28;20047;-83
2023/06/15 11:53:46;;;;;;;9.30;6.60;;;;;;;;;;4954037;29;20047;-84
2023/06/15 11:56:31;;;;;;;10.48;6.50;;;;;;;;;;4940854;29;20047;-84
2023/06/15 11:59:20;;;;;;;13.73;7.30;;;;;;;;;;4955388;29;20039;-84
2023/06/15 12:02:07;;;;;;;11.23;8.75;;;;;;;;;;4947214;28;20484;-83
2023/06/15 12:04:57;;;;;;;10.75;7.40;;;;;;;;;;4955325;29;20043;-83
2023/06/15 12:07:42;;;;;;;13.40;8.80;;;;;;;;;;4955073;29;20047;-83
2023/06/15 12:10:28;;;;;;;8.93;6.43;;;;;;;;;;4954282;29;20565;-84
2023/06/15 12:13:15;;;;;;;8.43;6.38;;;;;;;;;;4954631;29;20055;-84
2023/06/15 12:16:01;;;;;;;6.68;5.78;;;;;;;;;;4954667;29;20039;-84
2023/06/15 12:18:54;;;;;;;6.97;5.88;;;;;;;;;;4955227;29;20391;-84
2023/06/15 12:21:40;;;;;;;6.07;4.90;;;;;;;;;;4954956;29;20051;-84
2023/06/15 12:24:25;;;;;;;5.97;4.95;;;;;;;;;;4954900;29;20051;-84
2023/06/15 12:27:16;;;;;;;5.63;4.93;;;;;;;;;;4954999;29;20481;-84
2023/06/15 12:30:10;;;;;;;5.97;4.97;;;;;;;;;;4954957;29;20398;-83
2023/06/15 12:32:58;;;;;;;8.45;6.10;;;;;;;;;;4954478;29;20404;-83
2023/06/15 12:35:55;;;;;;;6.60;5.03;;;;;;;;;;4945196;29;20051;-84
2023/06/15 12:38:55;;;;;;;6.82;5.22;;;;;;;;;;4954249;29;20055;-85
2023/06/15 12:41:52;;;;;;;5.93;5.05;;;;;;;;;;4954708;29;20047;-85
2023/06/15 12:44:51;;;;;;;5.97;4.50;;;;;;;;;;4953527;29;20039;-82
2023/06/15 12:47:49;;;;;;;5.45;4.07;;;;;;;;;;4954539;29;20051;-85
2023/06/15 12:50:42;;;;;;;5.25;4.32;;;;;;;;;;4954920;29;20055;-82
2023/06/15 12:53:27;;;;;;;5.57;4.63;;;;;;;;;;4954112;29;20047;-83
2023/06/15 12:56:13;;;;;;;4.70;4.10;;;;;;;;;;4954370;29;20043;-83
2023/06/15 12:58:59;;;;;;;5.40;4.68;;;;;;;;;;4954843;29;20047;-83
2023/06/15 13:01:44;;;;;;;6.28;4.45;;;;;;;;;;4955886;28;20051;-83
2023/06/15 13:04:30;;;;;;;5.63;4.93;;;;;;;;;;4950347;28;20047;-83
2023/06/15 13:07:16;;;;;;;6.28;4.45;;;;;;;;;;4958205;29;20047;-84
2023/06/15 13:10:01;;;;;;;7.47;4.68;;;;;;;;;;4958311;29;20047;-84
2023/06/15 13:12:47;;;;;;;7.13;5.38;;;;;;;;;;4958602;29;20473;-84
2023/06/15 13:15:33;;;;;;;8.40;5.70;;;;;;;;;;4943790;29;20047;-84
2023/06/15 13:18:19;;;;;;;5.10;4.32;;;;;;;;;;4949957;28;20035;-84
2023/06/15 13:21:04;;;;;;;4.93;4.40;;;;;;;;;;4958176;29;20039;-84
2023/06/15 13:23:50;;;;;;;6.50;4.63;;;;;;;;;;4958396;29;20051;-84
2023/06/15 13:26:35;;;;;;;5.35;4.43;;;;;;;;;;4959193;29;20047;-86
2023/06/15 13:29:21;;;;;;;4.40;3.97;;;;;;;;;;4958667;29;20051;-83
2023/06/15 13:32:08;;;;;;;4.90;4.43;;;;;;;;;;4958175;29;20043;-82
2023/06/15 13:34:53;;;;;;;6.57;4.30;;;;;;;;;;4958676;29;20035;-82
2023/06/15 13:37:39;;;;;;;6.13;4.32;;;;;;;;;;4957639;29;20051;-81
2023/06/15 13:40:24;;;;;;;5.78;4.00;;;;;;;;;;4958465;29;20047;-82
2023/06/15 13:43:10;;;;;;;5.55;4.43;;;;;;;;;;4949957;28;20039;-83
2023/06/15 13:45:55;;;;;;;5.18;4.63;;;;;;;;;;4942170;29;20051;-82
2023/06/15 13:48:40;;;;;;;5.18;4.60;;;;;;;;;;4957446;29;20039;-83
2023/06/15 13:51:26;;;;;;;5.95;5.10;;;;;;;;;;4957568;29;20043;-83
2023/06/15 13:54:11;;;;;;;5.28;4.22;;;;;;;;;;4960004;29;20039;-80
2023/06/15 13:56:57;;;;;;;5.78;4.70;;;;;;;;;;4958517;29;20059;-82
2023/06/15 13:59:43;;;;;;;6.80;5.45;;;;;;;;;;4957122;29;20051;-82
2023/06/15 14:02:29;;;;;;;7.28;5.63;;;;;;;;;;4957356;29;20051;-83
2023/06/15 14:05:15;;;;;;;9.85;5.20;;;;;;;;;;4956991;29;20039;-83
2023/06/15 14:08:00;;;;;;;5.70;5.10;;;;;;;;;;4941974;29;20051;-83
2023/06/15 14:10:54;;;;;;;6.47;5.40;;;;;;;;;;4949184;28;20057;-82
2023/06/15 14:13:58;;;;;;;6.55;4.97;;;;;;;;;;4948846;28;20043;-84
2023/06/15 14:16:44;;;;;;;6.43;5.00;;;;;;;;;;4942906;29;20047;-83
2023/06/15 14:19:30;;;;;;;8.85;5.53;;;;;;;;;;4956688;29;20040;-87
2023/06/15 14:22:16;;;;;;;5.53;4.90;;;;;;;;;;4956811;29;20047;-85
2023/06/15 14:25:02;;;;;;;6.00;4.93;;;;;;;;;;4956576;29;20043;-84
2023/06/15 14:27:47;;;;;;;7.28;5.60;;;;;;;;;;4956971;29;20043;-85
2023/06/15 14:30:33;;;;;;;6.95;5.22;;;;;;;;;;4956839;29;20051;-84
2023/06/15 14:33:18;;;;;;;8.30;6.03;;;;;;;;;;4941630;29;20310;-85
2023/06/15 14:36:04;;;;;;;8.48;5.43;;;;;;;;;;4955876;29;20044;-85
2023/06/15 14:38:49;;;;;;;9.57;6.57;;;;;;;;;;4942269;29;20039;-85
2023/06/15 14:41:35;;;;;;;6.93;4.10;;;;;;;;;;4948332;28;20051;-85
2023/06/15 14:44:21;;;;;;;6.22;3.60;;;;;;;;;;4956575;29;20043;-87
2023/06/15 14:47:07;;;;;;;4.80;3.78;;;;;;;;;;4955695;29;20043;-86
2023/06/15 14:49:52;;;;;;;6.35;4.70;;;;;;;;;;4955471;29;20059;-86
2023/06/15 14:52:39;;;;;;;5.75;4.15;;;;;;;;;;4956053;29;20039;-87
2023/06/15 14:55:24;;;;;;;5.78;4.78;;;;;;;;;;4955959;29;20047;-85
2023/06/15 14:58:10;;;;;;;7.20;4.95;;;;;;;;;;4941538;29;20043;-84
2023/06/15 15:00:55;;;;;;;5.20;4.38;;;;;;;;;;4956020;29;20047;-85
2023/06/15 15:03:44;;;;;;;6.25;4.10;;;;;;;;;;4934467;28;20485;-86
2023/06/15 15:06:29;;;;;;;5.78;4.35;;;;;;;;;;4956021;29;20040;-83
2023/06/15 15:09:15;;;;;;;6.95;4.47;;;;;;;;;;4955486;29;20047;-84
2023/06/15 15:12:00;;;;;;;6.35;4.22;;;;;;;;;;4940739;29;20154;-85
2023/06/15 15:14:46;;;;;;;6.30;4.07;;;;;;;;;;4946835;28;20043;-84
2023/06/15 15:17:31;;;;;;;7.35;4.82;;;;;;;;;;4955236;29;20043;-84
2023/06/15 15:20:16;;;;;;;10.50;5.97;;;;;;;;;;4955919;29;20039;-85
2023/06/15 15:23:01;;;;;;;8.45;4.68;;;;;;;;;;4955745;29;20425;-85
2023/06/15 15:25:56;;;;;;;10.68;5.40;;;;;;;;;;4955939;28;20039;-85
2023/06/15 15:28:53;;;;;;;12.80;6.75;;;;;;;;;;4942736;29;20055;-84
2023/06/15 15:31:40;;;;;;;25.37;9.37;;;;;;;;;;4953967;29;20429;-84
2023/06/15 15:34:25;;;;;;;21.42;9.85;;;;;;;;;;4953772;29;20051;-85
2023/06/15 15:37:22;;;;;;;11.50;7.20;;;;;;;;;;4954214;29;20051;-85
2023/06/15 15:40:13;;;;;;;13.23;5.75;;;;;;;;;;4953605;29;20147;-85
2023/06/15 15:43:04;;;;;;;7.00;5.30;;;;;;;;;;4954072;29;20051;-85
2023/06/15 15:46:02;;;;;;;10.77;5.60;;;;;;;;;;4947844;28;20059;-84
2023/06/15 15:48:53;;;;;;;9.35;5.55;;;;;;;;;;4946585;28;20059;-84
2023/06/15 15:51:39;;;;;;;7.25;4.82;;;;;;;;;;4932820;28;20433;-84
2023/06/15 15:54:25;;;;;;;7.15;5.47;;;;;;;;;;4940450;29;20048;-84
2023/06/15 15:57:11;;;;;;;7.50;5.05;;;;;;;;;;4954535;29;20047;-84
2023/06/15 15:59:56;;;;;;;7.22;5.30;;;;;;;;;;4954893;29;20051;-84
2023/06/15 16:02:43;;;;;;;9.25;5.82;;;;;;;;;;4954870;29;20082;-82
2023/06/15 16:05:27;;;;;;;10.63;6.43;;;;;;;;;;4955229;29;20039;-82
2023/06/15 16:08:13;;;;;;;10.43;5.70;;;;;;;;;;4955529;29;20059;-83
2023/06/15 16:10:59;;;;;;;9.65;5.97;;;;;;;;;;4956132;29;20497;-82
2023/06/15 16:13:46;;;;;;;11.77;8.10;;;;;;;;;;4954883;29;20051;-81
2023/06/15 16:16:31;;;;;;;7.90;5.38;;;;;;;;;;4946137;29;20043;-81
2023/06/15 16:19:19;;;;;;;6.03;4.55;;;;;;;;;;4941300;29;20047;-83
2023/06/15 16:22:05;;;;;;;6.05;4.13;;;;;;;;;;4954959;29;20051;-83
2023/06/15 16:24:51;;;;;;;6.20;4.53;;;;;;;;;;4954796;29;20413;-82
2023/06/15 16:27:36;;;;;;;14.65;5.07;;;;;;;;;;4956204;29;20039;-83
2023/06/15 16:30:23;;;;;;;9.85;4.70;;;;;;;;;;4955639;29;20489;-79
2023/06/15 16:33:16;;;;;;;7.55;5.80;;;;;;;;;;4954566;29;20051;-80
2023/06/15 16:36:03;;;;;;;12.63;8.35;;;;;;;;;;4940408;28;20055;-86
2023/06/15 16:38:49;;;;;;;6.50;5.30;;;;;;;;;;4958548;29;20043;-82
2023/06/15 16:41:34;;;;;;;7.13;4.60;;;;;;;;;;4958902;29;20047;-85
2023/06/15 16:44:20;;;;;;;6.50;4.47;;;;;;;;;;4959061;29;20051;-84
2023/06/15 16:47:06;;;;;;;7.28;4.40;;;;;;;;;;4960724;29;20055;-85
2023/06/15 16:49:59;;;;;;;7.60;5.00;;;;;;;;;;4944139;29;20047;-84
2023/06/15 16:52:46;;;;;;;7.75;4.25;;;;;;;;;;4951061;28;20043;-83
2023/06/15 16:55:33;;;;;;;6.97;4.70;;;;;;;;;;4950607;28;20055;-84
2023/06/15 16:58:19;;;;;;;6.93;5.07;;;;;;;;;;4959649;29;20055;-83
2023/06/15 17:01:15;;;;;;;7.07;4.50;;;;;;;;;;4958781;29;20039;-85
2023/06/15 17:04:00;;;;;;;7.32;4.72;;;;;;;;;;4958763;29;20039;-85
2023/06/15 17:06:48;;;;;;;7.22;4.60;;;;;;;;;;4958570;29;20055;-82
2023/06/15 17:09:47;;;;;;;6.57;5.00;;;;;;;;;;4958232;29;20508;-83
2023/06/15 17:12:45;;;;;;;8.07;5.13;;;;;;;;;;4944353;29;20425;-82
2023/06/15 17:15:37;;;;;;;6.85;5.10;;;;;;;;;;4949287;28;20478;-83
2023/06/15 17:18:22;;;;;;;10.43;5.47;;;;;;;;;;4958043;29;20047;-83
2023/06/15 17:21:40;;;;;;;7.38;4.93;;;;;;;;;;4957932;29;20038;-85